createdAt,value
2022-11-10T00:00:00.383Z,11.70
2022-11-10T00:02:28.155Z,12.00
2022-11-10T00:04:55.861Z,11.80
2022-11-10T00:07:26.362Z,11.70
2022-11-10T00:09:55.856Z,11.50
2022-11-10T00:12:23.823Z,11.40
2022-11-10T00:15:08.927Z,11.20
2022-11-10T00:17:37.134Z,11.50
2022-11-10T00:20:06.806Z,11.60
2022-11-10T00:22:35.123Z,11.50
2022-11-10T00:25:05.012Z,11.30
2022-11-10T00:27:33.786Z,11.60
2022-11-10T00:30:01.819Z,11.70
2022-11-10T00:32:29.527Z,11.30
2022-11-10T00:34:57.235Z,11.30
2022-11-10T00:37:24.938Z,11.50
2022-11-10T00:39:52.652Z,11.50
2022-11-10T00:42:22.008Z,11.50
2022-11-10T00:44:49.688Z,11.50
2022-11-10T00:47:17.518Z,11.30
2022-11-10T00:49:45.223Z,11.20
2022-11-10T00:52:12.932Z,11.10
2022-11-10T00:54:40.623Z,11.40
2022-11-10T00:57:08.311Z,11.40
2022-11-10T00:59:37.334Z,11.30
2022-11-10T01:02:05.022Z,11.00
2022-11-10T01:04:32.768Z,11.40
2022-11-10T01:07:00.615Z,11.10
2022-11-10T01:09:28.476Z,11.40
2022-11-10T01:11:56.181Z,11.10
2022-11-10T01:14:24.007Z,11.10
2022-11-10T01:16:53.087Z,11.20
2022-11-10T01:19:20.790Z,11.00
2022-11-10T01:21:51.418Z,11.20
2022-11-10T01:24:21.974Z,11.00
2022-11-10T01:26:49.917Z,11.30
2022-11-10T01:29:17.635Z,11.00
2022-11-10T01:31:45.330Z,11.00
2022-11-10T01:34:14.451Z,11.10
2022-11-10T01:36:42.143Z,11.20
2022-11-10T01:39:09.824Z,10.80
2022-11-10T01:41:37.531Z,11.10
2022-11-10T01:44:16.787Z,11.00
2022-11-10T01:46:44.559Z,10.90
2022-11-10T01:49:15.342Z,11.00
2022-11-10T01:51:50.086Z,10.90
2022-11-10T01:54:22.464Z,10.60
2022-11-10T01:56:52.816Z,10.40
2022-11-10T01:59:24.932Z,11.00
2022-11-10T02:01:56.195Z,10.10
2022-11-10T02:04:26.444Z,10.60
2022-11-10T02:06:55.361Z,10.50
2022-11-10T02:09:23.299Z,10.50
2022-11-10T02:11:55.035Z,10.60
2022-11-10T02:14:23.000Z,10.80
2022-11-10T02:16:50.766Z,10.50
2022-11-10T02:19:20.216Z,10.60
2022-11-10T02:21:49.322Z,10.70
2022-11-10T02:24:17.186Z,10.50
2022-11-10T02:26:49.346Z,10.60
2022-11-10T02:29:17.292Z,10.50
2022-11-10T02:31:45.048Z,10.90
2022-11-10T02:34:12.772Z,10.70
2022-11-10T02:36:40.459Z,10.60
2022-11-10T02:39:09.613Z,10.70
2022-11-10T02:41:37.294Z,10.70
2022-11-10T02:44:06.463Z,10.70
2022-11-10T02:46:34.192Z,10.80
2022-11-10T02:49:01.870Z,10.80
2022-11-10T02:51:29.554Z,10.60
2022-11-10T02:53:57.247Z,10.70
2022-11-10T02:56:26.295Z,10.60
2022-11-10T02:58:54.034Z,10.70
2022-11-10T03:01:21.838Z,10.70
2022-11-10T03:03:49.564Z,10.50
2022-11-10T03:06:17.249Z,10.50
2022-11-10T03:08:44.970Z,10.70
2022-11-10T03:11:12.652Z,10.70
2022-11-10T03:14:00.501Z,10.60
2022-11-10T03:16:28.978Z,10.60
2022-11-10T03:18:56.728Z,10.90
2022-11-10T03:21:24.499Z,10.60
2022-11-10T03:23:52.233Z,10.50
2022-11-10T03:26:19.993Z,10.70
2022-11-10T03:28:49.020Z,10.70
2022-11-10T03:31:16.679Z,10.50
2022-11-10T03:33:44.396Z,10.60
2022-11-10T03:36:12.091Z,10.70
2022-11-10T03:38:39.770Z,10.70
2022-11-10T03:41:22.819Z,10.70
2022-11-10T03:43:52.046Z,10.60
2022-11-10T03:46:19.742Z,10.60
2022-11-10T03:48:53.296Z,10.30
2022-11-10T03:51:21.852Z,10.30
2022-11-10T03:53:49.596Z,10.40
2022-11-10T03:56:17.456Z,10.60
2022-11-10T03:58:45.159Z,10.30
2022-11-10T04:01:14.398Z,10.20
2022-11-10T04:03:43.136Z,10.40
2022-11-10T04:06:30.587Z,10.60
2022-11-10T04:09:01.034Z,10.30
2022-11-10T04:11:47.643Z,10.50
2022-11-10T04:14:33.171Z,10.40
2022-11-10T04:17:02.536Z,10.40
2022-11-10T04:19:30.540Z,10.20
2022-11-10T04:21:58.270Z,10.30
2022-11-10T04:24:26.085Z,10.10
2022-11-10T04:26:53.799Z,10.20
2022-11-10T04:29:21.550Z,10.60
2022-11-10T04:31:49.266Z,10.40
2022-11-10T04:34:18.286Z,10.40
2022-11-10T04:36:46.075Z,9.90
2022-11-10T04:39:13.802Z,10.30
2022-11-10T04:41:41.513Z,10.30
2022-11-10T04:44:09.375Z,10.50
2022-11-10T04:46:39.329Z,10.60
2022-11-10T04:49:08.675Z,10.30
2022-11-10T04:51:39.818Z,10.50
2022-11-10T04:54:09.046Z,10.40
2022-11-10T04:56:37.100Z,10.30
2022-11-10T04:59:04.821Z,10.50
2022-11-10T05:01:32.776Z,10.50
2022-11-10T05:04:01.011Z,10.00
2022-11-10T05:06:28.706Z,10.40
2022-11-10T05:08:57.775Z,10.60
2022-11-10T05:11:25.508Z,10.40
2022-11-10T05:13:53.196Z,10.50
2022-11-10T05:16:20.917Z,10.30
2022-11-10T05:18:53.884Z,10.30
2022-11-10T05:21:21.622Z,10.20
2022-11-10T05:23:49.314Z,10.10
2022-11-10T05:26:19.516Z,10.20
2022-11-10T05:28:47.501Z,10.10
2022-11-10T05:31:15.360Z,10.20
2022-11-10T05:33:43.100Z,10.00
2022-11-10T05:36:11.752Z,10.00
2022-11-10T05:38:43.547Z,10.00
2022-11-10T05:41:11.789Z,10.00
2022-11-10T05:43:40.922Z,10.00
2022-11-10T05:46:08.614Z,10.10
2022-11-10T05:48:36.313Z,10.00
2022-11-10T05:51:04.231Z,10.20
2022-11-10T05:53:31.987Z,9.90
2022-11-10T05:55:59.806Z,10.10
2022-11-10T05:58:27.500Z,9.90
2022-11-10T06:00:57.145Z,10.30
2022-11-10T06:03:25.297Z,10.10
2022-11-10T06:05:53.397Z,10.20
2022-11-10T06:08:21.117Z,10.40
2022-11-10T06:10:48.805Z,10.00
2022-11-10T06:13:16.512Z,10.20
2022-11-10T06:15:50.052Z,10.10
2022-11-10T06:18:19.572Z,10.30
2022-11-10T06:20:47.450Z,9.90
2022-11-10T06:23:15.744Z,10.10
2022-11-10T06:25:44.454Z,10.30
2022-11-10T06:28:12.178Z,10.20
2022-11-10T06:30:39.965Z,10.10
2022-11-10T06:33:08.114Z,9.90
2022-11-10T06:35:37.164Z,9.80
2022-11-10T06:38:06.527Z,9.90
2022-11-10T06:40:34.695Z,10.00
2022-11-10T06:43:03.173Z,9.20
2022-11-10T06:45:30.904Z,9.90
2022-11-10T06:48:02.718Z,9.90
2022-11-10T06:50:30.407Z,10.00
2022-11-10T06:53:00.640Z,9.80
2022-11-10T06:55:29.142Z,9.90
2022-11-10T06:57:57.449Z,9.80
2022-11-10T07:00:26.202Z,9.70
2022-11-10T07:03:00.859Z,9.80
2022-11-10T07:05:28.573Z,9.90
2022-11-10T07:07:56.282Z,9.40
2022-11-10T07:10:25.327Z,10.00
2022-11-10T07:12:58.454Z,9.70
2022-11-10T07:15:26.343Z,9.50
2022-11-10T07:17:54.220Z,10.10
2022-11-10T07:20:22.074Z,9.90
2022-11-10T07:22:50.378Z,9.50
2022-11-10T07:25:18.112Z,10.10
2022-11-10T07:27:47.191Z,10.10
2022-11-10T07:30:15.228Z,10.20
2022-11-10T07:32:42.960Z,10.00
2022-11-10T07:35:10.767Z,10.10
2022-11-10T07:37:38.514Z,9.90
2022-11-10T07:40:07.331Z,11.00
2022-11-10T07:42:40.800Z,12.00
2022-11-10T07:45:11.002Z,12.70
2022-11-10T07:47:38.698Z,13.70
2022-11-10T07:50:07.311Z,14.40
2022-11-10T07:52:35.563Z,14.50
2022-11-10T07:55:04.230Z,14.90
2022-11-10T07:57:32.053Z,15.60
2022-11-10T07:59:59.826Z,16.40
2022-11-10T08:02:28.887Z,17.00
2022-11-10T08:04:56.740Z,17.20
2022-11-10T08:07:24.583Z,18.10
2022-11-10T08:09:52.379Z,18.30
2022-11-10T08:12:20.118Z,18.40
2022-11-10T08:14:47.817Z,18.90
2022-11-10T08:17:15.498Z,19.00
2022-11-10T08:19:44.637Z,18.80
2022-11-10T08:22:12.317Z,18.70
2022-11-10T08:24:40.026Z,18.80
2022-11-10T08:27:07.747Z,19.70
2022-11-10T08:29:36.435Z,19.20
2022-11-10T08:32:04.371Z,19.90
2022-11-10T08:34:32.146Z,20.10
2022-11-10T08:37:01.175Z,20.30
2022-11-10T08:39:38.649Z,20.70
2022-11-10T08:42:07.267Z,20.50
2022-11-10T08:44:35.166Z,20.60
2022-11-10T08:47:02.904Z,20.50
2022-11-10T08:49:30.614Z,21.10
2022-11-10T08:51:58.379Z,21.30
2022-11-10T08:54:27.418Z,21.70
2022-11-10T08:56:55.350Z,22.10
2022-11-10T08:59:23.060Z,22.00
2022-11-10T09:01:50.838Z,22.10
2022-11-10T09:04:18.575Z,21.90
2022-11-10T09:06:46.397Z,21.50
2022-11-10T09:09:14.141Z,20.80
2022-11-10T09:11:43.168Z,21.00
2022-11-10T09:14:11.385Z,21.50
2022-11-10T09:16:39.171Z,21.50
2022-11-10T09:19:06.934Z,21.80
2022-11-10T09:21:34.681Z,21.90
2022-11-10T09:24:02.392Z,21.30
2022-11-10T09:26:30.134Z,20.50
2022-11-10T09:28:59.186Z,21.20
2022-11-10T09:31:26.958Z,21.30
2022-11-10T09:33:54.713Z,21.20
2022-11-10T09:36:22.586Z,21.50
2022-11-10T09:38:50.371Z,21.30
2022-11-10T09:41:18.943Z,21.60
2022-11-10T09:43:54.574Z,21.60
2022-11-10T09:46:25.135Z,21.70
2022-11-10T09:48:56.455Z,21.70
2022-11-10T09:51:27.346Z,21.60
2022-11-10T09:53:58.232Z,21.40
2022-11-10T09:56:32.427Z,21.70
2022-11-10T09:59:00.926Z,21.20
2022-11-10T10:01:39.990Z,20.80
2022-11-10T10:04:21.498Z,20.20
2022-11-10T10:07:10.705Z,19.00
2022-11-10T10:09:50.020Z,17.90
2022-11-10T10:12:31.998Z,16.70
2022-11-10T10:15:13.733Z,16.20
2022-11-10T10:17:51.035Z,16.00
2022-11-10T10:20:22.596Z,15.40
2022-11-10T10:23:07.370Z,15.10
2022-11-10T10:25:35.318Z,14.90
2022-11-10T10:28:07.992Z,14.90
2022-11-10T10:30:35.694Z,15.10
2022-11-10T10:33:15.308Z,15.20
2022-11-10T10:35:45.096Z,14.80
2022-11-10T10:38:21.213Z,15.30
2022-11-10T10:40:52.723Z,14.60
2022-11-10T10:43:20.847Z,15.00
2022-11-10T10:46:06.495Z,14.80
2022-11-10T10:48:35.969Z,15.00
2022-11-10T10:51:04.137Z,15.00
2022-11-10T10:53:31.893Z,14.80
2022-11-10T10:56:03.452Z,14.90
2022-11-10T10:58:33.521Z,15.00
2022-11-10T11:01:05.871Z,14.90
2022-11-10T11:03:44.409Z,14.90
2022-11-10T11:06:25.158Z,15.00
2022-11-10T11:08:59.960Z,15.00
2022-11-10T11:11:30.926Z,15.30
2022-11-10T11:14:21.423Z,15.60
2022-11-10T11:16:51.343Z,16.40
2022-11-10T11:19:22.253Z,17.10
2022-11-10T11:22:21.457Z,18.20
2022-11-10T11:24:55.663Z,19.00
2022-11-10T11:27:30.204Z,19.40
2022-11-10T11:30:09.726Z,19.10
2022-11-10T11:33:01.606Z,19.40
2022-11-10T11:35:38.973Z,19.80
2022-11-10T11:38:12.048Z,19.80
2022-11-10T11:40:52.651Z,20.10
2022-11-10T11:44:08.108Z,20.30
2022-11-10T11:46:46.427Z,20.70
2022-11-10T11:49:44.927Z,20.80
2022-11-10T11:52:26.315Z,21.00
2022-11-10T11:55:17.412Z,21.20
2022-11-10T11:57:59.431Z,21.10
2022-11-10T12:00:29.635Z,21.30
2022-11-10T12:03:19.107Z,20.90
2022-11-10T12:05:55.511Z,20.20
2022-11-10T12:08:34.510Z,20.10
2022-11-10T12:11:14.954Z,19.80
2022-11-10T12:13:54.851Z,19.50
2022-11-10T12:16:26.979Z,19.20
2022-11-10T12:19:05.567Z,19.30
2022-11-10T12:21:43.802Z,19.40
2022-11-10T12:24:28.342Z,19.20
2022-11-10T12:27:00.493Z,19.10
2022-11-10T12:29:34.182Z,18.60
2022-11-10T12:32:08.267Z,18.40
2022-11-10T12:34:42.600Z,18.10
2022-11-10T12:37:16.695Z,17.80
2022-11-10T12:39:51.334Z,17.80
2022-11-10T12:42:22.532Z,18.30
2022-11-10T12:44:59.426Z,19.00
2022-11-10T12:47:31.164Z,19.10
2022-11-10T12:50:09.843Z,19.70
2022-11-10T12:52:42.755Z,20.20
2022-11-10T12:55:15.591Z,21.00
2022-11-10T12:57:44.842Z,21.40
2022-11-10T13:00:28.047Z,21.50
2022-11-10T13:02:58.811Z,21.10
2022-11-10T13:05:31.054Z,21.10
2022-11-10T13:08:20.868Z,20.80
2022-11-10T13:10:53.665Z,20.40
2022-11-10T13:13:23.247Z,20.90
2022-11-10T13:15:56.740Z,20.70
2022-11-10T13:18:40.712Z,20.90
2022-11-10T13:21:08.447Z,20.20
2022-11-10T13:24:09.394Z,20.40
2022-11-10T13:26:53.215Z,20.30
2022-11-10T13:29:34.730Z,19.90
2022-11-10T13:32:24.785Z,19.80
2022-11-10T13:34:53.332Z,19.60
2022-11-10T13:37:50.563Z,19.90
2022-11-10T13:40:39.315Z,19.60
2022-11-10T13:43:29.599Z,19.70
2022-11-10T13:46:06.292Z,19.70
2022-11-10T13:49:15.300Z,19.70
2022-11-10T13:51:46.652Z,19.50
2022-11-10T13:54:39.791Z,19.30
2022-11-10T13:57:22.025Z,19.70
2022-11-10T13:59:55.266Z,19.60
2022-11-10T14:02:48.844Z,19.40
2022-11-10T14:06:04.805Z,18.50
2022-11-10T14:08:42.830Z,18.50
2022-11-10T14:11:17.946Z,17.80
2022-11-10T14:13:51.275Z,17.80
2022-11-10T14:16:23.135Z,17.30
2022-11-10T14:18:57.716Z,17.30
2022-11-10T14:21:42.378Z,17.10
2022-11-10T14:24:19.979Z,17.10
2022-11-10T14:26:52.153Z,16.90
2022-11-10T14:29:39.827Z,17.00
2022-11-10T14:32:16.010Z,16.90
2022-11-10T14:34:48.526Z,16.50
2022-11-10T14:37:22.888Z,16.40
2022-11-10T14:39:54.148Z,16.40
2022-11-10T14:42:24.777Z,16.50
2022-11-10T14:45:06.857Z,16.50
2022-11-10T14:47:37.559Z,16.30
2022-11-10T14:50:17.184Z,16.70
2022-11-10T14:52:47.692Z,16.30
2022-11-10T14:55:19.182Z,16.20
2022-11-10T14:57:59.435Z,16.20
2022-11-10T15:00:29.160Z,16.00
2022-11-10T15:03:00.096Z,15.90
2022-11-10T15:05:30.481Z,15.80
2022-11-10T15:07:59.156Z,15.90
2022-11-10T15:10:29.497Z,16.00
2022-11-10T15:13:05.513Z,15.50
2022-11-10T15:15:33.111Z,15.70
2022-11-10T15:18:02.243Z,15.80
2022-11-10T15:20:32.623Z,15.50
2022-11-10T15:23:02.223Z,15.60
2022-11-10T15:25:36.182Z,15.40
2022-11-10T15:28:08.023Z,14.90
2022-11-10T15:30:36.295Z,15.50
2022-11-10T15:33:12.103Z,15.50
2022-11-10T15:35:39.927Z,15.20
2022-11-10T15:38:29.190Z,15.10
2022-11-10T15:41:15.729Z,15.20
2022-11-10T15:43:43.471Z,15.10
2022-11-10T15:46:18.257Z,15.00
2022-11-10T15:48:50.355Z,14.90
2022-11-10T15:51:25.722Z,14.20
2022-11-10T15:53:55.276Z,14.70
2022-11-10T15:56:25.255Z,14.50
2022-11-10T15:59:00.583Z,14.40
2022-11-10T16:01:29.628Z,14.00
2022-11-10T16:03:59.192Z,13.70
2022-11-10T16:06:27.403Z,14.30
2022-11-10T16:08:55.237Z,14.30
2022-11-10T16:11:24.037Z,14.00
2022-11-10T16:13:53.053Z,14.20
2022-11-10T16:16:23.697Z,13.50
2022-11-10T16:18:52.393Z,13.90
2022-11-10T16:21:23.207Z,14.00
2022-11-10T16:23:51.668Z,14.10
2022-11-10T16:26:22.544Z,13.80
2022-11-10T16:28:51.237Z,13.90
2022-11-10T16:31:21.827Z,13.90
2022-11-10T16:33:49.895Z,13.80
2022-11-10T16:36:25.224Z,13.80
2022-11-10T16:38:54.994Z,13.60
2022-11-10T16:41:23.056Z,13.70
2022-11-10T16:43:51.230Z,13.50
2022-11-10T16:46:22.623Z,13.50
2022-11-10T16:48:51.823Z,13.40
2022-11-10T16:51:19.557Z,13.30
2022-11-10T16:53:49.110Z,13.20
2022-11-10T16:56:20.499Z,13.50
2022-11-10T16:58:48.312Z,13.60
2022-11-10T17:01:21.161Z,13.40
2022-11-10T17:03:51.162Z,13.30
2022-11-10T17:06:19.818Z,13.20
2022-11-10T17:08:51.143Z,13.40
2022-11-10T17:11:19.270Z,13.10
2022-11-10T17:13:47.019Z,13.00
2022-11-10T17:16:22.374Z,13.20
2022-11-10T17:18:51.245Z,13.10
2022-11-10T17:21:20.066Z,12.90
2022-11-10T17:23:49.429Z,12.80
2022-11-10T17:26:20.475Z,12.90
2022-11-10T17:28:48.283Z,12.90
2022-11-10T17:31:16.053Z,12.70
2022-11-10T17:33:43.872Z,12.90
2022-11-10T17:36:15.665Z,12.70
2022-11-10T17:38:44.439Z,13.00
2022-11-10T17:41:17.575Z,12.60
2022-11-10T17:43:46.274Z,12.60
2022-11-10T17:46:14.438Z,12.80
2022-11-10T17:48:42.495Z,12.40
2022-11-10T17:51:14.610Z,12.40
2022-11-10T17:53:43.816Z,12.50
2022-11-10T17:56:11.659Z,12.20
2022-11-10T17:58:40.820Z,12.30
2022-11-10T18:01:13.341Z,12.20
2022-11-10T18:03:41.444Z,12.30
2022-11-10T18:06:12.398Z,12.30
2022-11-10T18:08:40.123Z,12.10
2022-11-10T18:11:09.686Z,12.20
2022-11-10T18:13:37.775Z,12.20
2022-11-10T18:16:08.936Z,12.20
2022-11-10T18:18:37.056Z,12.10
2022-11-10T18:21:05.827Z,12.10
2022-11-10T18:23:34.306Z,11.80
2022-11-10T18:26:05.245Z,12.20
2022-11-10T18:28:33.768Z,12.10
2022-11-10T18:31:08.165Z,11.80
2022-11-10T18:33:36.737Z,11.70
2022-11-10T18:36:05.128Z,11.80
2022-11-10T18:38:33.147Z,11.80
2022-11-10T18:41:25.528Z,11.80
2022-11-10T18:43:53.745Z,12.00
2022-11-10T18:46:22.956Z,11.50
2022-11-10T18:48:50.649Z,11.50
2022-11-10T18:51:18.487Z,11.70
2022-11-10T18:53:46.338Z,11.70
2022-11-10T18:56:14.317Z,11.10
2022-11-10T18:58:42.539Z,11.40
2022-11-10T19:01:11.585Z,11.50
2022-11-10T19:03:42.561Z,11.60
2022-11-10T19:06:11.272Z,11.10
2022-11-10T19:08:39.738Z,11.60
2022-11-10T19:11:08.663Z,11.40
2022-11-10T19:13:36.971Z,11.10
2022-11-10T19:16:06.077Z,11.30
2022-11-10T19:18:33.893Z,10.70
2022-11-10T19:21:06.690Z,10.90
2022-11-10T19:23:35.069Z,11.10
2022-11-10T19:26:03.580Z,11.20
2022-11-10T19:28:31.514Z,11.10
2022-11-10T19:31:01.426Z,11.20
2022-11-10T19:33:30.523Z,10.90
2022-11-10T19:36:03.171Z,10.80
2022-11-10T19:38:32.594Z,10.60
2022-11-10T19:41:03.743Z,10.70
2022-11-10T19:43:32.127Z,10.70
2022-11-10T19:46:02.535Z,10.70
2022-11-10T19:48:31.344Z,10.80
2022-11-10T19:50:59.882Z,10.90
2022-11-10T19:53:28.206Z,10.70
2022-11-10T19:56:03.455Z,10.60
2022-11-10T19:58:31.350Z,10.50
2022-11-10T20:01:00.027Z,10.50
2022-11-10T20:03:30.391Z,10.60
2022-11-10T20:05:58.835Z,10.50
2022-11-10T20:08:26.712Z,10.40
2022-11-10T20:10:54.786Z,10.50
2022-11-10T20:13:24.525Z,10.40
2022-11-10T20:15:52.699Z,10.50
2022-11-10T20:18:20.454Z,10.40
2022-11-10T20:20:48.675Z,10.70
2022-11-10T20:23:16.736Z,10.80
2022-11-10T20:25:44.714Z,10.50
2022-11-10T20:28:14.225Z,10.50
2022-11-10T20:30:45.515Z,10.70
2022-11-10T20:33:13.603Z,10.00
2022-11-10T20:35:43.320Z,10.50
2022-11-10T20:38:11.862Z,10.50
2022-11-10T20:40:44.315Z,10.60
2022-11-10T20:43:14.735Z,10.60
2022-11-10T20:45:43.952Z,10.30
2022-11-10T20:48:11.831Z,10.30
2022-11-10T20:50:41.121Z,10.60
2022-11-10T20:53:08.934Z,10.40
2022-11-10T20:55:53.029Z,10.40
2022-11-10T20:58:21.583Z,10.20
2022-11-10T21:00:50.741Z,10.40
2022-11-10T21:03:18.700Z,10.30
2022-11-10T21:05:46.541Z,10.30
2022-11-10T21:08:14.316Z,10.10
2022-11-10T21:10:42.147Z,10.00
2022-11-10T21:13:09.005Z,10.10
2022-11-10T21:15:39.655Z,10.10
2022-11-10T21:18:08.893Z,10.40
2022-11-10T21:20:36.938Z,10.40
2022-11-10T21:23:04.698Z,10.20
2022-11-10T21:25:32.787Z,10.20
2022-11-10T21:28:02.264Z,10.00
2022-11-10T21:30:30.037Z,10.00
2022-11-10T21:32:57.912Z,10.00
2022-11-10T21:35:27.145Z,10.40
2022-11-10T21:37:55.322Z,10.30
2022-11-10T21:40:23.275Z,10.00
2022-11-10T21:42:55.328Z,10.00
2022-11-10T21:45:23.199Z,10.10
2022-11-10T21:47:50.978Z,10.10
2022-11-10T21:50:19.343Z,10.10
2022-11-10T21:52:48.412Z,9.80
2022-11-10T21:55:16.383Z,9.80
2022-11-10T21:57:44.120Z,9.90
2022-11-10T22:00:13.263Z,10.10
2022-11-10T22:02:40.987Z,10.00
2022-11-10T22:05:09.444Z,9.70
2022-11-10T22:07:39.303Z,9.80
2022-11-10T22:10:27.759Z,9.40
2022-11-10T22:13:12.878Z,9.80
2022-11-10T22:15:58.563Z,9.80
2022-11-10T22:18:38.303Z,9.70
2022-11-10T22:21:07.350Z,9.70
2022-11-10T22:23:52.753Z,9.80
2022-11-10T22:26:21.873Z,9.60
2022-11-10T22:28:49.703Z,9.60
2022-11-10T22:31:17.475Z,9.70
2022-11-10T22:33:45.173Z,9.50
2022-11-10T22:36:14.211Z,9.20
2022-11-10T22:38:42.740Z,9.50
2022-11-10T22:41:32.765Z,9.30
2022-11-10T22:44:06.053Z,9.30
2022-11-10T22:46:35.871Z,9.20
2022-11-10T22:49:06.548Z,9.20
2022-11-10T22:51:35.678Z,9.40
2022-11-10T22:54:03.501Z,9.30
2022-11-10T22:56:32.951Z,9.20
2022-11-10T22:59:02.117Z,8.70
2022-11-10T23:01:30.071Z,9.30
2022-11-10T23:03:58.875Z,9.30
2022-11-10T23:06:27.054Z,9.50
2022-11-10T23:08:54.985Z,9.50
2022-11-10T23:11:26.889Z,9.20
2022-11-10T23:13:54.686Z,9.20
2022-11-10T23:16:25.694Z,9.30
2022-11-10T23:18:55.391Z,8.90
2022-11-10T23:21:24.830Z,9.00
2022-11-10T23:23:53.433Z,9.10
2022-11-10T23:26:22.719Z,9.20
2022-11-10T23:28:50.716Z,8.90
2022-11-10T23:31:20.676Z,9.10
2022-11-10T23:33:51.879Z,9.10
2022-11-10T23:36:21.039Z,9.40
2022-11-10T23:38:49.212Z,9.00
2022-11-10T23:41:18.810Z,9.00
2022-11-10T23:43:47.386Z,8.90
2022-11-10T23:46:15.132Z,9.00
2022-11-10T23:48:43.423Z,8.80
2022-11-10T23:51:14.532Z,9.00
2022-11-10T23:53:42.628Z,9.20
2022-11-10T23:56:13.037Z,8.80
2022-11-10T23:58:40.973Z,9.00
